Latest Coastal Weather Observations for Green Cape

IDN60701

Issued at 5:02 am EST Monday 26 September 2016 (issued every 10 minutes, with the page automatically refreshed every 10 minutes)

About coastal observations | Map of coastal stations | Coastal observations for NSW | Marine services | Other Formats
Station Details ID: 069137 Name: GREEN CAPE AWS Lat: -37.26 Lon: 150.05 Height: 19.4 m
Data from the previous 72 hours. | See also: Recent months at Green Cape
Date/Time
EST
Temp
°C
Wind Pressure Rain since
9am
mm
Weather Cloud Vis
km
Sea
Height
m
Swell
Dir  Spd
kts
Gust
kts
hPa Trend Height
m
Period
s
Dir
26/05:00am 10.6 W 17 22 1011.9 - 0.2 - - - - - - -
26/04:30am 10.6 W 18 23 1011.7 - 0.2 - - - - - - -
26/04:00am 10.5 W 18 24 1011.6 - 0.2 - - - - - - -
26/03:30am 10.5 W 19 24 1011.4 - 0.2 - - - - - - -
26/03:00am 10.9 WSW 22 27 1011.2 - 0.2 - - - - - - -
26/02:30am 11.1 WSW 23 29 1011.5 - 0.2 - - - - - - -
26/02:00am 11.2 WSW 23 28 1011.7 - 0.2 - - - - - - -
26/01:30am 11.3 WSW 20 24 1012.4 - 0.2 - - - - - - -
26/01:00am 11.4 WSW 18 23 1012.5 - 0.2 - - - - - - -
26/12:30am 11.5 WSW 16 19 1012.5 - 0.2 - - - - - - -
26/12:00am 11.3 WSW 11 15 1012.3 - 0.2 - - - - - - -
 
Date/Time
EST
Temp
°C
Wind Pressure Rain since
9am
mm
Weather Cloud Vis
km
Sea
Height
m
Swell
Dir  Spd
kts
Gust
kts
hPa Trend Height
m
Period
s
Dir
25/11:30pm 11.5 WSW 12 15 1012.3 - 0.2 - - - - - - -
25/11:00pm 11.7 WSW 14 18 1012.2 - 0.2 - - - - - - -
25/10:30pm 11.8 WSW 14 17 1012.1 - 0.2 - - - - - - -
25/10:00pm 11.9 WSW 15 17 1012.1 - 0.2 - - - - - - -
25/09:30pm 12.1 WSW 19 22 1011.8 - 0.2 - - - - - - -
25/09:00pm 12.2 WSW 15 18 1011.5 - 0.2 - - - - - - -
25/08:30pm 12.3 WSW 15 19 1011.3 - 0.2 - - - - - - -
25/08:00pm 12.4 WSW 16 19 1011.1 - 0.2 - - - - - - -
25/07:30pm 12.6 SW 18 24 1010.6 - 0.2 - - - - - - -
25/07:00pm 12.8 SW 17 22 1010.2 - 0.2 - - - - - - -
25/06:30pm 12.9 SW 20 24 1009.8 - 0.2 - - - - - - -
25/06:00pm 12.9 SW 25 30 1009.1 - 0.2 - - - - - - -
25/05:30pm 13.0 SW 19 23 1009.2 - 0.2 - - - - - - -
25/05:00pm 13.3 SW 25 30 1008.7 - 0.2 - - - - - - -
25/04:30pm 13.2 SW 25 29 1008.5 - 0.2 - - - - - - -
25/04:00pm 13.1 SSW 24 28 1008.1 - 0.2 - - - - - - -
25/03:30pm 13.7 SSW 25 29 1007.9 - 0.2 - - - - - - -
25/03:00pm 14.4 SW 23 27 1007.7 - 0.2 - - - - - - -
25/02:30pm 13.9 SSW 27 30 1007.5 - 0.2 - - - - - - -
25/02:00pm 13.3 SW 23 28 1007.8 - 0.2 - - - - - - -
25/01:41pm 14.8 SSW 22 29 1007.4 - 0.2 - - - - - - -
25/01:30pm 15.2 SW 20 24 1007.5 - 0.2 - - - - - - -
25/01:00pm 14.7 SSW 26 32 1007.1 - 0.2 - - - - - - -
25/12:30pm 15.1 SW 23 28 1007.4 - 0.0 - - - - - - -
25/12:01pm 14.5 SW 21 31 1007.0 - 0.0 - - - - - - -
25/12:00pm 14.8 SW 20 29 1007.1 - 0.0 - - - - - - -
25/11:30am 14.8 SW 22 27 1007.0 - 0.0 - - - - - - -
25/11:00am 16.6 SW 18 21 1006.4 - 0.0 - - - - - - -
25/10:30am 16.4 SSW 19 23 1006.1 - 0.0 - - - - - - -
25/10:00am 16.3 SSW 19 22 1006.2 - 0.0 - - - - - - -
25/09:30am 16.6 SSW 18 21 1006.2 - 0.0 - - - - - - -
25/09:00am 16.6 SSW 17 19 1006.2 - 0.8 - - - - - - -
25/08:30am 16.4 SW 12 17 1006.0 - 0.8 - - - - - - -
25/08:00am 15.3 WSW 7 10 1006.1 - 0.8 - - - - - - -
25/07:30am 14.3 W 5 6 1005.7 - 0.8 - - - - - - -
25/07:00am 14.5 WSW 5 7 1005.0 - 0.8 - - - - - - -
25/06:30am 14.1 WSW 9 11 1004.5 - 0.8 - - - - - - -
25/06:00am 13.4 WNW 4 6 1004.3 - 0.8 - - - - - - -
25/05:30am 13.6 W 4 5 1004.3 - 0.8 - - - - - - -
25/05:00am 14.4 W 8 9 1004.4 - 0.8 - - - - - - -
25/04:30am 14.9 SW 7 9 1004.0 - 0.8 - - - - - - -
25/04:00am 14.5 SSW 9 11 1003.9 - 0.8 - - - - - - -
25/03:30am 14.5 SW 11 13 1004.2 - 0.8 - - - - - - -
25/03:00am 14.6 WSW 6 9 1004.3 - 0.8 - - - - - - -
25/02:30am 14.6 W 3 5 1004.3 - 0.8 - - - - - - -
25/02:00am 15.1 W 4 6 1004.7 - 0.8 - - - - - - -
25/01:30am 15.1 NNW 6 7 1004.9 - 0.8 - - - - - - -
25/01:00am 15.2 N 3 4 1005.1 - 0.8 - - - - - - -
25/12:30am 15.5 NNW 4 6 1005.6 - 0.8 - - - - - - -
25/12:00am 15.7 N 5 7 1005.7 - 0.8 - - - - - - -
 
Date/Time
EST
Temp
°C
Wind Pressure Rain since
9am
mm
Weather Cloud Vis
km
Sea
Height
m
Swell
Dir  Spd
kts
Gust
kts
hPa Trend Height
m
Period
s
Dir
24/11:30pm 15.8 N 9 11 1005.9 - 0.8 - - - - - - -
24/11:00pm 15.9 N 9 11 1006.0 - 0.8 - - - - - - -
24/10:30pm 15.9 N 9 10 1006.1 - 0.8 - - - - - - -
24/10:00pm 16.0 NNE 10 11 1006.3 - 0.8 - - - - - - -
24/09:30pm 16.3 NNE 14 17 1006.6 - 0.8 - - - - - - -
24/09:00pm 16.4 NNE 14 16 1006.9 - 0.6 Rain - - - - - -
24/08:30pm 16.5 N 11 12 1007.6 - 0.0 - - - - - - -
24/08:00pm 16.6 N 12 13 1007.7 - 0.0 - - - - - - -
24/07:30pm 16.6 NNE 12 15 1007.5 - 0.0 - - - - - - -
24/07:00pm 16.5 NNE 14 17 1007.3 - 0.0 - - - - - - -
24/06:30pm 16.4 NNE 15 17 1006.9 - 0.0 - - - - - - -
24/06:00pm 16.5 NNE 15 18 1006.8 - 0.0 - - - - - - -
24/05:30pm 16.7 NNE 15 17 1007.1 - 0.0 - - - - - - -
24/05:00pm 17.1 NNE 14 17 1007.1 - 0.0 - - - - - - -
24/04:30pm 17.8 NNE 15 17 1006.9 - 0.0 - - - - - - -
24/04:00pm 17.8 NNE 17 19 1006.5 - 0.0 - - - - - - -
24/03:30pm 18.0 NNE 14 16 1006.8 - 0.0 - - - - - - -
24/03:00pm 19.0 NNE 13 15 1007.2 - 0.0 - - - - - - -
24/02:30pm 19.0 NNE 12 15 1007.3 - 0.0 - - - - - - -
24/02:00pm 19.3 NNE 13 15 1007.8 - 0.0 - - - - - - -
24/01:30pm 19.5 NNE 10 12 1008.3 - 0.0 - - - - - - -
24/01:00pm 19.4 NNE 10 11 1008.7 - 0.0 - - - - - - -
24/12:30pm 19.0 NNE 9 11 1009.0 - 0.0 - - - - - - -
24/12:00pm 19.0 NNE 9 10 1009.5 - 0.0 - - - - - - -
24/11:30am 18.6 NNE 9 10 1010.0 - 0.0 - - - - - - -
24/11:00am 18.5 N 8 9 1010.3 - 0.0 - - - - - - -
24/10:30am 17.8 NNE 7 8 1010.6 - 0.0 - - - - - - -
24/10:00am 18.3 N 5 6 1011.0 - 0.0 - - - - - - -
24/09:30am 18.1 N 5 6 1011.4 - 0.0 - - - - - - -
24/09:00am 17.1 N 1 3 1011.7 - 0.0 - - - - - - -
24/08:30am 15.8 WNW 2 3 1011.9 - 0.0 - - - - - - -
24/08:00am 14.7 W 3 4 1012.0 - 0.0 - - - - - - -
24/07:30am 13.6 WNW 5 7 1012.0 - 0.0 - - - - - - -
24/07:00am 13.1 W 8 9 1012.1 - 0.0 - - - - - - -
24/06:30am 13.2 W 8 9 1011.9 - 0.0 - - - - - - -
24/06:00am 13.5 W 6 8 1011.8 - 0.0 - - - - - - -
24/05:30am 13.6 W 6 8 1011.5 - 0.0 - - - - - - -
24/05:00am 13.5 W 7 8 1011.4 - 0.0 - - - - - - -
24/04:30am 13.8 W 7 8 1011.5 - 0.0 - - - - - - -
24/04:00am 13.7 W 9 10 1011.5 - 0.0 - - - - - - -
24/03:30am 13.6 W 8 9 1011.6 - 0.0 - - - - - - -
24/03:00am 13.6 W 10 11 1011.7 - 0.0 - - - - - - -
24/02:30am 13.4 W 11 12 1011.9 - 0.0 - - - - - - -
24/02:00am 13.6 W 11 12 1012.0 - 0.0 - - - - - - -
24/01:30am 13.5 W 10 12 1012.2 - 0.0 - - - - - - -
24/01:00am 13.5 W 11 12 1012.4 - 0.0 - - - - - - -
24/12:30am 13.6 W 11 12 1012.4 - 0.0 - - - - - - -
24/12:00am 13.4 W 12 14 1012.5 - 0.0 - - - - - - -
 
Date/Time
EST
Temp
°C
Wind Pressure Rain since
9am
mm
Weather Cloud Vis
km
Sea
Height
m
Swell
Dir  Spd
kts
Gust
kts
hPa Trend Height
m
Period
s
Dir
23/11:30pm 13.7 W 10 11 1012.6 - 0.0 - - - - - - -
23/11:00pm 13.6 W 11 12 1012.8 - 0.0 - - - - - - -
23/10:30pm 13.7 W 11 13 1012.9 - 0.0 - - - - - - -
23/10:00pm 13.7 W 13 15 1013.1 - 0.0 - - - - - - -
23/09:30pm 13.8 W 11 13 1013.3 - 0.0 - - - - - - -
23/09:00pm 13.9 W 12 14 1013.5 - 0.0 - - - - - - -
23/08:30pm 14.1 W 13 15 1013.6 - 0.0 - - - - - - -
23/08:00pm 14.1 W 15 17 1013.6 - 0.0 - - - - - - -
23/07:30pm 14.1 WSW 15 17 1013.6 - 0.0 - - - - - - -
23/07:00pm 14.4 WSW 16 18 1013.6 - 0.0 - - - - - - -
23/06:30pm 14.5 WSW 15 18 1013.4 - 0.0 - - - - - - -
23/06:00pm 14.8 WSW 15 17 1013.2 - 0.0 - - - - - - -
23/05:30pm 15.3 SW 15 17 1013.0 - 0.0 - - - - - - -
23/05:00pm 15.3 SW 18 23 1012.7 - 0.0 - - - - - - -
23/04:30pm 15.7 SW 17 21 1012.5 - 0.0 - - - - - - -
23/04:00pm 15.8 SW 18 21 1012.4 - 0.0 - - - - - - -
23/03:30pm 16.2 SSW 17 21 1012.5 - 0.0 - - - - - - -
23/03:00pm 16.1 SW 19 23 1012.6 - 0.0 - - - - - - -
23/02:30pm 16.6 SW 20 22 1012.7 - 0.0 - - - - - - -
23/02:00pm 16.6 SW 19 22 1012.9 - 0.0 - - - - - - -
23/01:30pm 16.5 SW 19 23 1013.0 - 0.0 - - - - - - -
23/01:00pm 16.4 SW 22 25 1012.8 - 0.0 - - - - - - -
23/12:30pm 16.1 SSW 23 27 1013.1 - 0.0 - - - - - - -
23/12:00pm 16.3 SSW 20 23 1013.3 - 0.0 - - - - - - -
23/11:30am 15.5 SW 23 28 1013.5 - 0.0 - - - - - - -
23/11:00am 16.1 SW 22 26 1013.6 - 0.0 - - - - - - -
23/10:30am 15.8 SW 22 26 1013.6 - 0.0 - - - - - - -
23/10:00am 15.5 SW 23 26 1013.7 - 0.0 - - - - - - -
23/09:30am 14.5 WSW 20 24 1014.1 - 0.0 - - - - - - -
23/09:00am 14.3 WSW 21 24 1014.1 - 9.2 - - - - - - -
23/08:30am 13.9 WSW 20 23 1014.1 - 9.2 - - - - - - -
23/08:00am 13.4 WSW 22 25 1013.8 - 9.2 - - - - - - -
23/07:30am 13.2 WSW 21 24 1013.7 - 9.2 - - - - - - -
23/07:00am 13.2 WSW 19 22 1013.6 - 9.2 - - - - - - -
23/06:45am 13.5 WSW 18 20 1013.5 - 9.2 - - - - - - -
23/06:30am 14.3 SW 21 24 1013.3 - 9.2 - - - - - - -
23/06:00am 14.8 SW 21 24 1012.7 - 9.2 - - - - - - -
23/05:30am 15.0 SSW 25 29 1012.3 - 9.2 - - - - - - -

Other Formats:

Comma delimited format used in spreadsheet applications
http://www.bom.gov.au/fwo/IDN60701/IDN60701.94934.axf

JavaScript Object Notation format (JSON) in row-major order
http://www.bom.gov.au/fwo/IDN60701/IDN60701.94934.json